sensor_id;sensor_type;location;lat;lon;timestamp;temperature;humidity
17240;DHT22;9943;54.378;18.604;2022-07-22T19:04:59;20.40;99.90
17240;DHT22;9943;54.378;18.604;2022-07-22T19:07:32;20.30;99.90
17240;DHT22;9943;54.378;18.604;2022-07-22T19:10:38;20.50;99.90
17240;DHT22;9943;54.378;18.604;2022-07-22T19:13:33;20.60;99.90
17240;DHT22;9943;54.378;18.604;2022-07-22T19:22:03;21.50;99.90
17240;DHT22;9943;54.378;18.604;2022-07-22T20:08:46;20.00;99.90
17240;DHT22;9943;54.378;18.604;2022-07-22T20:11:35;20.10;99.90
17240;DHT22;9943;54.378;18.604;2022-07-22T20:14:09;20.10;99.90
17240;DHT22;9943;54.378;18.604;2022-07-22T21:09:44;19.90;99.90
17240;DHT22;9943;54.378;18.604;2022-07-22T21:13:02;18.90;99.90
17240;DHT22;9943;54.378;18.604;2022-07-22T21:16:40;19.50;99.90
17240;DHT22;9943;54.378;18.604;2022-07-22T21:39:04;19.70;99.90
17240;DHT22;9943;54.378;18.604;2022-07-22T21:41:48;18.90;99.90
17240;DHT22;9943;54.378;18.604;2022-07-22T21:44:30;19.60;99.90
17240;DHT22;9943;54.378;18.604;2022-07-22T21:47:19;19.10;99.90
17240;DHT22;9943;54.378;18.604;2022-07-22T21:50:42;18.90;99.90
17240;DHT22;9943;54.378;18.604;2022-07-22T21:53:37;18.80;99.90
17240;DHT22;9943;54.378;18.604;2022-07-22T22:00:19;19.20;99.90
17240;DHT22;9943;54.378;18.604;2022-07-22T22:07:18;18.70;99.90
17240;DHT22;9943;54.378;18.604;2022-07-22T22:13:01;18.80;99.90
17240;DHT22;9943;54.378;18.604;2022-07-22T22:29:30;18.60;99.90
17240;DHT22;9943;54.378;18.604;2022-07-22T22:34:35;18.30;99.90
17240;DHT22;9943;54.378;18.604;2022-07-22T22:39:37;18.80;99.90
17240;DHT22;9943;54.378;18.604;2022-07-22T22:42:09;18.70;99.90
17240;DHT22;9943;54.378;18.604;2022-07-22T22:44:59;18.50;99.90
17240;DHT22;9943;54.378;18.604;2022-07-22T22:47:33;18.90;99.90
17240;DHT22;9943;54.378;18.604;2022-07-22T22:50:09;18.60;99.90
17240;DHT22;9943;54.378;18.604;2022-07-22T22:52:43;18.80;99.90
17240;DHT22;9943;54.378;18.604;2022-07-22T22:55:16;18.30;99.90
17240;DHT22;9943;54.378;18.604;2022-07-22T22:58:00;18.90;99.90
17240;DHT22;9943;54.378;18.604;2022-07-22T23:00:40;18.50;99.90
17240;DHT22;9943;54.378;18.604;2022-07-22T23:03:12;18.20;99.90
17240;DHT22;9943;54.378;18.604;2022-07-22T23:05:45;18.50;99.90
17240;DHT22;9943;54.378;18.604;2022-07-22T23:08:30;18.30;99.90
17240;DHT22;9943;54.378;18.604;2022-07-22T23:11:05;18.50;99.90
17240;DHT22;9943;54.378;18.604;2022-07-22T23:13:41;18.10;99.90
17240;DHT22;9943;54.378;18.604;2022-07-22T23:16:14;18.10;99.90
17240;DHT22;9943;54.378;18.604;2022-07-22T23:22:20;18.20;99.90
17240;DHT22;9943;54.378;18.604;2022-07-22T23:24:50;17.90;99.90
17240;DHT22;9943;54.378;18.604;2022-07-22T23:27:17;18.30;99.90
17240;DHT22;9943;54.378;18.604;2022-07-22T23:29:58;18.00;99.90
17240;DHT22;9943;54.378;18.604;2022-07-22T23:32:31;18.20;99.90
17240;DHT22;9943;54.378;18.604;2022-07-22T23:38:03;17.70;99.90
17240;DHT22;9943;54.378;18.604;2022-07-22T23:40:43;18.00;99.90
17240;DHT22;9943;54.378;18.604;2022-07-22T23:43:21;18.00;99.90
17240;DHT22;9943;54.378;18.604;2022-07-22T23:48:33;17.90;99.90
17240;DHT22;9943;54.378;18.604;2022-07-22T23:53:36;15.90;99.90
17240;DHT22;9943;54.378;18.604;2022-07-22T23:56:10;17.60;99.90
